Time;durP1;ratioP1;P1;durP2;ratioP2;P2;SDS_P1;SDS_P2;PMS_P1;PMS_P2;Temp;Humidity;BMP_temperature;BMP_pressure;BME280_temperature;BME280_humidity;BME280_pressure;Samples;Min_cycle;Max_cycle;Signal;HPM_P1;HPM_P2
2023/09/18 00:02:09;;;;;;;49.50;29.38;;;;;;;;;;5051923;28;20139;-62
2023/09/18 00:04:35;;;;;;;55.72;30.60;;;;;;;;;;5051528;28;20060;-62
2023/09/18 00:07:00;;;;;;;53.80;30.30;;;;;;;;;;5051638;28;20028;-62
2023/09/18 00:09:25;;;;;;;51.63;29.60;;;;;;;;;;5051806;28;20436;-61
2023/09/18 00:11:51;;;;;;;57.33;31.48;;;;;;;;;;5051784;28;20021;-63
2023/09/18 00:14:16;;;;;;;54.42;30.27;;;;;;;;;;5051912;28;20385;-62
2023/09/18 00:16:42;;;;;;;53.03;29.70;;;;;;;;;;5051714;28;20021;-63
2023/09/18 00:19:07;;;;;;;46.20;27.63;;;;;;;;;;5051663;28;20040;-63
2023/09/18 00:21:33;;;;;;;43.03;25.85;;;;;;;;;;5054978;28;20021;-63
2023/09/18 00:23:58;;;;;;;40.05;25.00;;;;;;;;;;5055008;28;20029;-63
2023/09/18 00:26:24;;;;;;;40.03;24.48;;;;;;;;;;5055350;28;20172;-63
2023/09/18 00:28:50;;;;;;;38.58;24.10;;;;;;;;;;5053613;28;20444;-63
2023/09/18 00:31:15;;;;;;;37.13;23.27;;;;;;;;;;5054228;28;20017;-63
2023/09/18 00:33:40;;;;;;;37.17;23.05;;;;;;;;;;5054803;28;20046;-62
2023/09/18 00:36:05;;;;;;;35.88;22.42;;;;;;;;;;5055146;28;20105;-66
2023/09/18 00:38:31;;;;;;;34.63;21.30;;;;;;;;;;5054990;28;20047;-63
2023/09/18 00:40:56;;;;;;;37.05;21.67;;;;;;;;;;5054738;28;20033;-62
2023/09/18 00:43:21;;;;;;;33.22;21.23;;;;;;;;;;5054934;28;20094;-62
2023/09/18 00:45:47;;;;;;;31.38;21.13;;;;;;;;;;5045330;28;20032;-63
2023/09/18 00:48:14;;;;;;;33.55;20.10;;;;;;;;;;5054803;28;20029;-64
2023/09/18 00:50:39;;;;;;;36.47;20.27;;;;;;;;;;5054847;28;20045;-64
2023/09/18 00:53:07;;;;;;;29.23;18.95;;;;;;;;;;5054772;28;20351;-62
2023/09/18 00:55:32;;;;;;;28.95;18.80;;;;;;;;;;5054303;28;20021;-64
2023/09/18 00:57:57;;;;;;;25.92;18.13;;;;;;;;;;5054580;28;20112;-64
2023/09/18 01:03:26;;;;;;;31.30;18.17;;;;;;;;;;5053387;22;20183;-71
2023/09/18 01:05:51;;;;;;;25.15;17.25;;;;;;;;;;5018725;28;20168;-71
2023/09/18 01:08:16;;;;;;;27.15;17.27;;;;;;;;;;5032565;28;20032;-72
2023/09/18 01:10:53;;;;;;;27.70;17.55;;;;;;;;;;5033614;28;20386;-71
2023/09/18 01:13:21;;;;;;;23.65;17.42;;;;;;;;;;5034315;28;20470;-72
2023/09/18 01:15:59;;;;;;;22.73;16.50;;;;;;;;;;5034200;28;20021;-71
2023/09/18 01:18:24;;;;;;;26.35;17.23;;;;;;;;;;5033968;28;20029;-72
2023/09/18 01:20:50;;;;;;;24.75;16.67;;;;;;;;;;5033883;28;20033;-71
2023/09/18 01:23:15;;;;;;;22.48;16.40;;;;;;;;;;5034124;28;20025;-72
2023/09/18 01:25:40;;;;;;;23.35;15.90;;;;;;;;;;5034226;28;20025;-71
2023/09/18 01:28:05;;;;;;;23.48;16.02;;;;;;;;;;5034146;28;20020;-72
2023/09/18 01:30:31;;;;;;;21.63;15.02;;;;;;;;;;5033443;28;20413;-72
2023/09/18 01:32:57;;;;;;;22.10;15.43;;;;;;;;;;5033687;28;20029;-72
2023/09/18 01:35:28;;;;;;;21.42;14.90;;;;;;;;;;5033133;28;20032;-72
2023/09/18 01:37:55;;;;;;;19.73;14.18;;;;;;;;;;5033898;28;20434;-72
2023/09/18 01:40:20;;;;;;;20.58;13.45;;;;;;;;;;5033808;28;20080;-72
2023/09/18 01:42:46;;;;;;;18.52;13.43;;;;;;;;;;5033258;28;20461;-72
2023/09/18 01:45:11;;;;;;;18.38;12.68;;;;;;;;;;5033754;28;20024;-71
2023/09/18 01:47:36;;;;;;;21.63;13.02;;;;;;;;;;5033890;28;20014;-72
2023/09/18 01:50:07;;;;;;;20.05;13.20;;;;;;;;;;5033586;28;20473;-71
2023/09/18 01:52:34;;;;;;;20.42;14.07;;;;;;;;;;5033705;28;20024;-72
2023/09/18 01:54:59;;;;;;;18.85;13.32;;;;;;;;;;5033702;28;20025;-72
2023/09/18 01:57:25;;;;;;;17.52;12.45;;;;;;;;;;5033314;28;20021;-72
2023/09/18 01:59:50;;;;;;;19.27;12.50;;;;;;;;;;5033644;28;20037;-72
2023/09/18 02:02:16;;;;;;;18.40;12.57;;;;;;;;;;5033162;28;20510;-72
2023/09/18 02:04:41;;;;;;;18.70;11.55;;;;;;;;;;5033447;28;20099;-70
2023/09/18 02:07:07;;;;;;;18.50;11.18;;;;;;;;;;5033218;28;20022;-72
2023/09/18 02:09:32;;;;;;;16.15;10.93;;;;;;;;;;5033064;28;20029;-71
2023/09/18 02:11:58;;;;;;;16.58;10.93;;;;;;;;;;5033435;28;20545;-72
2023/09/18 02:14:23;;;;;;;17.58;11.98;;;;;;;;;;5033376;28;20096;-72
2023/09/18 02:16:49;;;;;;;15.82;11.18;;;;;;;;;;5032968;28;20096;-72
2023/09/18 02:19:14;;;;;;;16.58;10.80;;;;;;;;;;5033269;28;20151;-72
2023/09/18 02:21:40;;;;;;;16.70;9.88;;;;;;;;;;5033295;28;20127;-72
2023/09/18 02:24:05;;;;;;;19.35;10.48;;;;;;;;;;5032925;28;20033;-73
2023/09/18 02:26:31;;;;;;;15.55;10.02;;;;;;;;;;5033104;28;20112;-72
2023/09/18 02:28:58;;;;;;;15.27;9.73;;;;;;;;;;5032679;28;20075;-72
2023/09/18 02:31:23;;;;;;;17.27;9.23;;;;;;;;;;5029515;28;20041;-72
2023/09/18 02:33:49;;;;;;;16.42;10.52;;;;;;;;;;5030820;28;20555;-72
2023/09/18 02:36:14;;;;;;;17.35;9.38;;;;;;;;;;5032995;28;20034;-72
2023/09/18 02:38:39;;;;;;;18.08;9.55;;;;;;;;;;5032489;28;20029;-72
2023/09/18 02:41:04;;;;;;;15.10;9.32;;;;;;;;;;5032572;28;20087;-72
2023/09/18 02:43:30;;;;;;;14.23;9.05;;;;;;;;;;5032410;28;20025;-72
2023/09/18 02:45:55;;;;;;;16.15;8.63;;;;;;;;;;5032140;28;20028;-72
2023/09/18 02:48:20;;;;;;;10.82;8.13;;;;;;;;;;5030952;28;20036;-71
2023/09/18 02:50:45;;;;;;;11.48;8.30;;;;;;;;;;5031797;28;20013;-72
2023/09/18 02:53:18;;;;;;;11.80;8.18;;;;;;;;;;5032418;28;20032;-72
2023/09/18 02:55:44;;;;;;;11.57;7.75;;;;;;;;;;5032717;28;20092;-71
2023/09/18 02:58:10;;;;;;;12.10;7.70;;;;;;;;;;5032759;28;20092;-72
2023/09/18 03:00:35;;;;;;;12.82;7.95;;;;;;;;;;5032278;28;20036;-71
2023/09/18 03:03:00;;;;;;;14.18;8.25;;;;;;;;;;5032204;28;20049;-72
2023/09/18 03:05:26;;;;;;;13.35;7.60;;;;;;;;;;5032621;28;20481;-71
2023/09/18 03:07:51;;;;;;;10.40;7.00;;;;;;;;;;5029122;28;20067;-72
2023/09/18 03:10:18;;;;;;;12.20;6.88;;;;;;;;;;5032295;28;20040;-72
2023/09/18 03:12:43;;;;;;;12.80;7.20;;;;;;;;;;5032516;28;20035;-71
2023/09/18 03:15:09;;;;;;;10.50;6.85;;;;;;;;;;5032251;28;20093;-66
2023/09/18 03:17:34;;;;;;;10.07;7.03;;;;;;;;;;5032019;28;20033;-67
2023/09/18 03:19:59;;;;;;;11.63;7.07;;;;;;;;;;5032212;28;20044;-67
2023/09/18 03:22:25;;;;;;;10.82;7.07;;;;;;;;;;5032153;28;20080;-67
2023/09/18 03:24:50;;;;;;;11.50;7.50;;;;;;;;;;5032384;28;20034;-66
2023/09/18 03:27:15;;;;;;;11.27;6.65;;;;;;;;;;5025327;28;20565;-67
2023/09/18 03:29:41;;;;;;;9.88;6.20;;;;;;;;;;5032248;28;20420;-66
2023/09/18 03:32:06;;;;;;;10.55;6.95;;;;;;;;;;5032378;28;20428;-67
2023/09/18 03:34:31;;;;;;;9.30;6.43;;;;;;;;;;5032249;28;20509;-67
2023/09/18 03:36:56;;;;;;;9.65;6.65;;;;;;;;;;5031954;28;20454;-67
2023/09/18 03:39:21;;;;;;;10.43;6.45;;;;;;;;;;5032184;28;20022;-66
2023/09/18 03:41:47;;;;;;;10.50;6.65;;;;;;;;;;5031811;28;20470;-67
2023/09/18 03:44:12;;;;;;;13.70;6.82;;;;;;;;;;5031944;28;20466;-66
2023/09/18 03:46:37;;;;;;;12.43;6.88;;;;;;;;;;5031715;28;20029;-67
2023/09/18 03:49:02;;;;;;;11.40;6.72;;;;;;;;;;5032079;28;20026;-66
2023/09/18 03:51:28;;;;;;;12.30;6.88;;;;;;;;;;5032113;28;20363;-67
2023/09/18 03:53:54;;;;;;;11.20;6.70;;;;;;;;;;5032174;28;20358;-67
2023/09/18 03:56:19;;;;;;;11.40;6.90;;;;;;;;;;5036045;28;20017;-67
2023/09/18 03:58:49;;;;;;;11.63;6.95;;;;;;;;;;5035797;28;20035;-67
2023/09/18 04:01:14;;;;;;;15.05;7.40;;;;;;;;;;5035141;28;20021;-67
2023/09/18 04:03:39;;;;;;;12.18;7.00;;;;;;;;;;5034728;28;20056;-66
2023/09/18 04:06:04;;;;;;;13.80;7.25;;;;;;;;;;5035425;28;20108;-66
2023/09/18 04:08:29;;;;;;;11.73;6.90;;;;;;;;;;5035517;28;20103;-66
2023/09/18 04:10:55;;;;;;;9.23;6.30;;;;;;;;;;5035570;28;20083;-69
2023/09/18 04:13:21;;;;;;;10.95;6.45;;;;;;;;;;5035387;28;20024;-67
2023/09/18 04:15:46;;;;;;;12.57;6.72;;;;;;;;;;5035470;28;20018;-67
2023/09/18 04:18:11;;;;;;;10.60;5.95;;;;;;;;;;5035524;28;20017;-67
2023/09/18 04:20:37;;;;;;;12.02;6.55;;;;;;;;;;5035384;28;20029;-67
2023/09/18 04:23:33;;;;;;;12.27;6.90;;;;;;;;;;5034586;28;20023;-67
2023/09/18 04:25:58;;;;;;;8.93;6.25;;;;;;;;;;4993541;28;20494;-68
2023/09/18 04:28:24;;;;;;;11.75;6.15;;;;;;;;;;4993506;28;20026;-67
2023/09/18 04:30:49;;;;;;;10.90;6.47;;;;;;;;;;4993256;28;20023;-69
2023/09/18 04:33:14;;;;;;;13.23;6.80;;;;;;;;;;5011258;28;20096;-67
2023/09/18 04:35:40;;;;;;;10.23;6.72;;;;;;;;;;5012834;28;20529;-68
2023/09/18 04:38:06;;;;;;;12.05;6.47;;;;;;;;;;5010980;28;20022;-68
2023/09/18 04:40:32;;;;;;;9.00;6.18;;;;;;;;;;5010366;28;20076;-67
2023/09/18 04:43:00;;;;;;;11.23;6.10;;;;;;;;;;5011780;28;20483;-69
2023/09/18 04:45:26;;;;;;;9.45;6.10;;;;;;;;;;5011468;28;20028;-68
2023/09/18 04:47:51;;;;;;;9.10;5.32;;;;;;;;;;5012050;28;20022;-67
2023/09/18 04:50:17;;;;;;;9.85;5.78;;;;;;;;;;5012293;28;20101;-67
2023/09/18 04:52:42;;;;;;;9.48;6.10;;;;;;;;;;5011374;28;20022;-67
2023/09/18 04:55:08;;;;;;;9.05;5.13;;;;;;;;;;5012131;28;20113;-68
2023/09/18 04:57:33;;;;;;;9.55;6.03;;;;;;;;;;5011939;28;20096;-67
2023/09/18 04:59:59;;;;;;;13.32;6.25;;;;;;;;;;5009563;28;20037;-67
2023/09/18 05:02:25;;;;;;;9.38;5.95;;;;;;;;;;5021195;28;20037;-67
2023/09/18 05:04:50;;;;;;;9.23;5.90;;;;;;;;;;5034089;28;20034;-67
2023/09/18 05:07:16;;;;;;;10.27;5.80;;;;;;;;;;5032850;28;20116;-67
2023/09/18 05:09:41;;;;;;;11.60;5.63;;;;;;;;;;5033214;28;20087;-68
2023/09/18 05:12:13;;;;;;;10.55;5.55;;;;;;;;;;5033467;28;20441;-68
2023/09/18 05:14:38;;;;;;;8.73;6.03;;;;;;;;;;5030125;28;20018;-67
2023/09/18 05:17:03;;;;;;;10.63;5.50;;;;;;;;;;5014491;28;20025;-66
2023/09/18 05:19:29;;;;;;;8.88;5.15;;;;;;;;;;5020545;28;20022;-66
2023/09/18 05:21:54;;;;;;;9.15;5.80;;;;;;;;;;5033420;28;20461;-66
2023/09/18 05:24:26;;;;;;;12.70;5.70;;;;;;;;;;5033608;28;20477;-66
2023/09/18 05:26:52;;;;;;;15.18;5.80;;;;;;;;;;5032175;28;20100;-67
2023/09/18 05:29:18;;;;;;;11.68;5.75;;;;;;;;;;5033827;28;20117;-67
2023/09/18 05:31:43;;;;;;;9.55;5.90;;;;;;;;;;5015662;28;20426;-67
2023/09/18 05:34:09;;;;;;;10.80;5.85;;;;;;;;;;5014335;28;20463;-67
2023/09/18 05:36:34;;;;;;;12.85;6.20;;;;;;;;;;5013924;28;20014;-67
2023/09/18 05:38:59;;;;;;;10.52;5.95;;;;;;;;;;5015359;28;20062;-67
2023/09/18 05:41:26;;;;;;;9.75;5.85;;;;;;;;;;5033551;28;20032;-67
2023/09/18 05:43:52;;;;;;;14.25;5.95;;;;;;;;;;5033593;28;20021;-67
2023/09/18 05:46:17;;;;;;;17.10;6.15;;;;;;;;;;5033703;28;20048;-67
2023/09/18 05:48:42;;;;;;;11.10;6.53;;;;;;;;;;5031854;28;20025;-67
2023/09/18 05:51:07;;;;;;;13.75;5.90;;;;;;;;;;5033490;28;20079;-66
2023/09/18 05:53:34;;;;;;;11.02;7.05;;;;;;;;;;5033343;28;20033;-66
2023/09/18 05:56:03;;;;;;;12.40;6.60;;;;;;;;;;5033620;28;20112;-66
2023/09/18 05:58:31;;;;;;;10.52;5.90;;;;;;;;;;5033572;28;20477;-66
2023/09/18 06:00:57;;;;;;;12.82;6.90;;;;;;;;;;5033420;28;20096;-67
2023/09/18 06:03:22;;;;;;;8.98;6.47;;;;;;;;;;5027733;28;20073;-66
2023/09/18 06:05:48;;;;;;;12.38;7.13;;;;;;;;;;5032701;28;20044;-67
2023/09/18 06:08:13;;;;;;;10.23;6.80;;;;;;;;;;5032447;28;20027;-67
2023/09/18 06:10:38;;;;;;;13.95;6.78;;;;;;;;;;5032702;28;20152;-67
2023/09/18 06:13:05;;;;;;;16.90;6.47;;;;;;;;;;5032520;28;20166;-67
2023/09/18 06:15:31;;;;;;;12.07;6.38;;;;;;;;;;5032914;28;20017;-67
2023/09/18 06:17:56;;;;;;;15.27;6.75;;;;;;;;;;5032936;28;20466;-66
2023/09/18 06:20:21;;;;;;;10.80;6.28;;;;;;;;;;5033229;28;20024;-67
2023/09/18 06:22:47;;;;;;;10.50;6.78;;;;;;;;;;5032970;28;20013;-67
2023/09/18 06:25:13;;;;;;;10.43;6.28;;;;;;;;;;5030990;28;20029;-68
2023/09/18 06:27:38;;;;;;;11.15;6.43;;;;;;;;;;5028720;28;20010;-66
2023/09/18 06:30:04;;;;;;;8.70;6.40;;;;;;;;;;5030466;28;20139;-67
2023/09/18 06:32:30;;;;;;;10.73;6.32;;;;;;;;;;5032451;28;20056;-68
2023/09/18 06:34:57;;;;;;;12.00;6.35;;;;;;;;;;5032016;28;20374;-68
2023/09/18 06:37:22;;;;;;;13.65;6.30;;;;;;;;;;5029932;28;20024;-68
2023/09/18 06:39:47;;;;;;;8.85;5.82;;;;;;;;;;5032154;28;20374;-68
2023/09/18 06:42:13;;;;;;;11.88;6.00;;;;;;;;;;5032425;28;20027;-68
2023/09/18 06:44:38;;;;;;;9.27;6.25;;;;;;;;;;5030842;28;20021;-67
2023/09/18 06:47:03;;;;;;;10.00;6.10;;;;;;;;;;5031687;28;20056;-68
2023/09/18 06:49:28;;;;;;;12.20;6.60;;;;;;;;;;5031799;28;20025;-68
2023/09/18 06:51:53;;;;;;;9.38;6.03;;;;;;;;;;5032064;28;20025;-68
2023/09/18 06:54:19;;;;;;;10.35;6.20;;;;;;;;;;5031930;28;20080;-67
2023/09/18 06:56:44;;;;;;;9.85;5.97;;;;;;;;;;5031894;28;20382;-69
2023/09/18 06:59:10;;;;;;;8.88;6.10;;;;;;;;;;5032397;28;20413;-68
2023/09/18 07:01:35;;;;;;;11.07;5.60;;;;;;;;;;5032366;28;20025;-68
2023/09/18 07:04:01;;;;;;;10.95;6.20;;;;;;;;;;5031657;28;20460;-69
2023/09/18 07:06:26;;;;;;;9.70;5.78;;;;;;;;;;5032682;28;20389;-68
2023/09/18 07:08:51;;;;;;;9.45;5.70;;;;;;;;;;5032467;28;20026;-69
2023/09/18 07:11:17;;;;;;;9.07;5.20;;;;;;;;;;5032449;28;20033;-68
2023/09/18 07:13:43;;;;;;;10.60;5.45;;;;;;;;;;5028923;28;20370;-68
2023/09/18 07:16:08;;;;;;;8.80;5.60;;;;;;;;;;5032560;28;20026;-68
2023/09/18 07:18:34;;;;;;;8.80;5.60;;;;;;;;;;5029105;28;20382;-68
2023/09/18 07:20:59;;;;;;;10.70;5.80;;;;;;;;;;5031406;28;20033;-68
2023/09/18 07:23:24;;;;;;;8.40;5.45;;;;;;;;;;5031163;28;20026;-67
2023/09/18 07:25:50;;;;;;;11.27;6.00;;;;;;;;;;5031937;28;20092;-67
2023/09/18 07:28:17;;;;;;;12.90;5.90;;;;;;;;;;5032343;28;20432;-68
2023/09/18 07:30:46;;;;;;;10.27;5.60;;;;;;;;;;5034935;28;20071;-68
2023/09/18 07:33:11;;;;;;;10.70;5.60;;;;;;;;;;5036365;28;20030;-70
2023/09/18 07:35:37;;;;;;;9.00;5.45;;;;;;;;;;5036340;28;20401;-68
2023/09/18 07:38:02;;;;;;;8.70;5.57;;;;;;;;;;5036025;28;20052;-69
2023/09/18 07:40:28;;;;;;;11.90;5.78;;;;;;;;;;5035996;28;20053;-68
2023/09/18 07:42:53;;;;;;;9.57;5.00;;;;;;;;;;5035877;28;20029;-68
2023/09/18 07:45:18;;;;;;;8.85;5.28;;;;;;;;;;5035914;28;20030;-72
2023/09/18 07:47:44;;;;;;;8.85;5.18;;;;;;;;;;5036014;28;20470;-73
2023/09/18 07:50:09;;;;;;;7.90;4.85;;;;;;;;;;5035724;28;20029;-72
2023/09/18 07:52:34;;;;;;;9.05;4.85;;;;;;;;;;5035889;28;20092;-72
2023/09/18 07:54:59;;;;;;;10.40;4.78;;;;;;;;;;5035975;28;20496;-73
2023/09/18 07:57:34;;;;;;;10.35;4.35;;;;;;;;;;5035605;28;20466;-72
2023/09/18 07:59:59;;;;;;;7.15;4.15;;;;;;;;;;5035503;28;20092;-72
2023/09/18 08:02:25;;;;;;;9.43;4.35;;;;;;;;;;5035331;28;20152;-73
2023/09/18 08:04:52;;;;;;;9.32;4.00;;;;;;;;;;5035491;28;20021;-73
2023/09/18 08:07:18;;;;;;;8.23;4.03;;;;;;;;;;5035784;28;20036;-73
2023/09/18 08:09:44;;;;;;;8.52;4.20;;;;;;;;;;5035581;28;20064;-72
2023/09/18 08:12:09;;;;;;;8.00;4.80;;;;;;;;;;5034985;28;20422;-73
2023/09/18 08:14:36;;;;;;;11.50;4.50;;;;;;;;;;5035349;28;20041;-72
2023/09/18 08:17:02;;;;;;;9.85;4.00;;;;;;;;;;5029691;28;20079;-71
2023/09/18 08:19:28;;;;;;;8.15;4.00;;;;;;;;;;5028204;28;20103;-72
2023/09/18 08:21:57;;;;;;;9.15;3.83;;;;;;;;;;5028961;28;20021;-72
2023/09/18 08:24:22;;;;;;;7.05;3.63;;;;;;;;;;5032886;28;20482;-71
2023/09/18 08:26:48;;;;;;;10.80;3.55;;;;;;;;;;5031328;28;20077;-71
2023/09/18 08:29:13;;;;;;;10.10;3.80;;;;;;;;;;5027584;28;20031;-72
2023/09/18 08:31:39;;;;;;;8.45;3.70;;;;;;;;;;5034039;28;20087;-72
2023/09/18 08:34:04;;;;;;;11.02;3.78;;;;;;;;;;5034489;28;20534;-72
2023/09/18 08:36:30;;;;;;;9.43;3.80;;;;;;;;;;5026958;28;20029;-71
2023/09/18 08:38:55;;;;;;;10.25;3.60;;;;;;;;;;5028020;28;20060;-71
2023/09/18 08:41:25;;;;;;;9.15;4.00;;;;;;;;;;5026360;28;20529;-72
2023/09/18 08:43:51;;;;;;;9.30;3.30;;;;;;;;;;5022728;28;20023;-72
2023/09/18 08:46:16;;;;;;;7.03;3.30;;;;;;;;;;5033948;28;20100;-73
2023/09/18 08:48:42;;;;;;;8.57;3.20;;;;;;;;;;5023562;28;20029;-72
2023/09/18 08:51:08;;;;;;;7.28;2.67;;;;;;;;;;5034708;28;20017;-72
2023/09/18 08:53:34;;;;;;;10.63;3.78;;;;;;;;;;5022376;28;20014;-72
2023/09/18 08:56:03;;;;;;;7.20;3.10;;;;;;;;;;5023261;28;20025;-72
2023/09/18 08:58:33;;;;;;;7.68;3.30;;;;;;;;;;5021521;28;20025;-72
2023/09/18 09:01:00;;;;;;;9.95;2.67;;;;;;;;;;5027540;28;20545;-71
2023/09/18 09:03:26;;;;;;;8.18;2.88;;;;;;;;;;5016926;28;20048;-71
2023/09/18 09:05:51;;;;;;;9.80;3.10;;;;;;;;;;5025911;28;20018;-71
2023/09/18 09:08:16;;;;;;;7.88;2.70;;;;;;;;;;5034157;28;20048;-72
2023/09/18 09:10:42;;;;;;;8.52;2.67;;;;;;;;;;5034188;28;20014;-72
2023/09/18 09:13:07;;;;;;;7.50;2.28;;;;;;;;;;5034570;28;20096;-72
2023/09/18 09:15:35;;;;;;;14.68;3.20;;;;;;;;;;5034207;28;20020;-72
2023/09/18 09:18:06;;;;;;;11.38;2.60;;;;;;;;;;5032806;28;20068;-72
2023/09/18 09:20:32;;;;;;;6.28;2.08;;;;;;;;;;5029312;28;20029;-72
2023/09/18 09:23:01;;;;;;;5.07;2.05;;;;;;;;;;5028616;28;20083;-72
2023/09/18 09:25:28;;;;;;;9.38;2.70;;;;;;;;;;5019367;28;20523;-71
2023/09/18 09:27:54;;;;;;;8.02;2.08;;;;;;;;;;5018523;28;20036;-72
2023/09/18 09:30:20;;;;;;;9.80;2.90;;;;;;;;;;5030252;28;20054;-72
2023/09/18 09:32:50;;;;;;;9.23;2.75;;;;;;;;;;5025605;28;20072;-72
2023/09/18 09:35:34;;;;;;;11.52;2.63;;;;;;;;;;5022212;28;20018;-73
2023/09/18 09:38:00;;;;;;;10.55;2.80;;;;;;;;;;5028267;28;20024;-72
2023/09/18 09:40:26;;;;;;;6.30;2.08;;;;;;;;;;5024895;28;20069;-72
2023/09/18 09:42:53;;;;;;;9.13;2.15;;;;;;;;;;5018327;28;20505;-72
2023/09/18 09:45:19;;;;;;;7.82;2.35;;;;;;;;;;5026708;28;20363;-72
2023/09/18 09:47:44;;;;;;;7.82;2.28;;;;;;;;;;5031312;28;20067;-72
2023/09/18 09:50:11;;;;;;;8.80;2.60;;;;;;;;;;5018775;28;20049;-72
2023/09/18 09:52:42;;;;;;;7.43;2.63;;;;;;;;;;5013012;28;20033;-72
2023/09/18 09:55:30;;;;;;;8.30;2.38;;;;;;;;;;5024166;28;20477;-72
2023/09/18 09:58:05;;;;;;;8.95;2.50;;;;;;;;;;5033743;28;20078;-73
2023/09/18 10:00:31;;;;;;;7.22;2.58;;;;;;;;;;5033671;28;20473;-72
2023/09/18 10:03:00;;;;;;;10.52;2.38;;;;;;;;;;5032928;28;20497;-73
2023/09/18 10:05:33;;;;;;;9.15;2.60;;;;;;;;;;5033253;28;20021;-71
2023/09/18 10:08:00;;;;;;;7.00;1.90;;;;;;;;;;5033491;28;20508;-72
2023/09/18 10:10:30;;;;;;;8.52;2.60;;;;;;;;;;5024860;28;20076;-74
2023/09/18 10:12:56;;;;;;;6.82;2.25;;;;;;;;;;5028871;28;20482;-74
2023/09/18 10:15:23;;;;;;;6.50;2.45;;;;;;;;;;5020925;28;20115;-74
2023/09/18 10:17:52;;;;;;;5.72;2.17;;;;;;;;;;5030525;28;20029;-72
2023/09/18 10:20:20;;;;;;;7.18;2.47;;;;;;;;;;5032987;28;20032;-71
2023/09/18 10:22:49;;;;;;;9.63;2.55;;;;;;;;;;5033224;28;20025;-73
2023/09/18 10:25:20;;;;;;;8.52;2.60;;;;;;;;;;5027497;28;20029;-73
2023/09/18 10:27:49;;;;;;;9.95;2.70;;;;;;;;;;5019985;28;20018;-74
2023/09/18 10:30:18;;;;;;;5.88;2.30;;;;;;;;;;5015865;28;20030;-72
2023/09/18 10:32:45;;;;;;;7.82;2.38;;;;;;;;;;5021148;28;20052;-74
2023/09/18 10:35:11;;;;;;;5.32;2.30;;;;;;;;;;5021682;28;20513;-74
2023/09/18 10:37:37;;;;;;;8.75;2.55;;;;;;;;;;5023675;28;20032;-72
2023/09/18 10:40:04;;;;;;;6.10;2.25;;;;;;;;;;5021803;28;20468;-74
2023/09/18 10:42:30;;;;;;;6.88;2.45;;;;;;;;;;5032372;28;20060;-73
2023/09/18 10:44:56;;;;;;;8.15;2.03;;;;;;;;;;5024141;28;20137;-71
2023/09/18 10:47:21;;;;;;;5.90;2.20;;;;;;;;;;5029883;28;20033;-73
2023/09/18 10:49:46;;;;;;;4.90;2.17;;;;;;;;;;5032405;28;20053;-73
2023/09/18 10:52:13;;;;;;;7.50;2.08;;;;;;;;;;5028163;28;20063;-72
2023/09/18 10:54:39;;;;;;;7.28;2.47;;;;;;;;;;5021694;28;20026;-74
2023/09/18 10:57:04;;;;;;;5.65;2.15;;;;;;;;;;5019729;28;20021;-73
2023/09/18 10:59:31;;;;;;;9.20;2.33;;;;;;;;;;5025753;28;20036;-72
2023/09/18 11:01:56;;;;;;;4.82;2.13;;;;;;;;;;5012927;28;20506;-71
2023/09/18 11:04:22;;;;;;;7.80;1.88;;;;;;;;;;5016756;28;20136;-67
2023/09/18 11:06:53;;;;;;;4.88;2.13;;;;;;;;;;5028782;28;20107;-68
2023/09/18 11:09:25;;;;;;;6.70;2.50;;;;;;;;;;5020235;28;20036;-69
2023/09/18 11:12:04;;;;;;;4.43;1.85;;;;;;;;;;5025807;28;20062;-68
2023/09/18 11:14:43;;;;;;;6.72;1.73;;;;;;;;;;5031512;28;20028;-67
2023/09/18 11:17:26;;;;;;;6.57;2.00;;;;;;;;;;5032552;28;20021;-69
2023/09/18 11:20:01;;;;;;;5.85;1.90;;;;;;;;;;5032102;28;20022;-68
2023/09/18 11:22:26;;;;;;;7.72;1.90;;;;;;;;;;5027806;28;20057;-68
2023/09/18 11:24:51;;;;;;;6.75;1.75;;;;;;;;;;5032222;28;20052;-68
2023/09/18 11:27:23;;;;;;;5.75;2.40;;;;;;;;;;5028352;28;20021;-68
2023/09/18 11:29:52;;;;;;;4.07;2.15;;;;;;;;;;5028185;28;20385;-69
2023/09/18 11:32:36;;;;;;;6.55;3.05;;;;;;;;;;5029321;28;20029;-68
2023/09/18 11:35:08;;;;;;;4.07;2.17;;;;;;;;;;5032048;28;20028;-68
2023/09/18 11:37:33;;;;;;;;;;;;;;;;;;5032413;28;20018;-67
2023/09/18 11:39:59;;;;;;;6.55;2.95;;;;;;;;;;5029241;28;19954;-68
2023/09/18 11:42:26;;;;;;;4.35;2.10;;;;;;;;;;5032264;28;20083;-67
2023/09/18 11:44:52;;;;;;;6.30;2.20;;;;;;;;;;5025961;28;20108;-68
2023/09/18 11:47:22;;;;;;;6.38;2.20;;;;;;;;;;5012521;28;20062;-67
2023/09/18 11:49:59;;;;;;;5.53;2.10;;;;;;;;;;5012074;28;20026;-68
2023/09/18 11:52:29;;;;;;;5.60;2.25;;;;;;;;;;5012497;28;20511;-68
2023/09/18 11:54:58;;;;;;;6.57;2.15;;;;;;;;;;5024884;28;20026;-68
2023/09/18 11:57:24;;;;;;;4.22;2.17;;;;;;;;;;5028715;28;20052;-68
2023/09/18 11:59:50;;;;;;;6.15;2.53;;;;;;;;;;5031517;28;20128;-68
2023/09/18 12:02:28;;;;;;;4.82;2.47;;;;;;;;;;5016022;28;20382;-67
2023/09/18 12:04:56;;;;;;;5.70;2.33;;;;;;;;;;5015834;28;20026;-67
2023/09/18 12:07:21;;;;;;;5.90;2.30;;;;;;;;;;5018365;28;20474;-68
2023/09/18 12:09:46;;;;;;;6.85;2.45;;;;;;;;;;5023568;28;20040;-68
2023/09/18 12:12:14;;;;;;;6.28;2.53;;;;;;;;;;5025981;28;20060;-68
2023/09/18 12:14:41;;;;;;;4.95;2.42;;;;;;;;;;5032001;28;20137;-72
2023/09/18 12:17:07;;;;;;;5.57;2.45;;;;;;;;;;5035247;28;20421;-71
2023/09/18 12:19:35;;;;;;;4.82;2.08;;;;;;;;;;5030804;28;20044;-71
2023/09/18 12:22:00;;;;;;;5.57;2.15;;;;;;;;;;5030541;28;20064;-72
2023/09/18 12:24:26;;;;;;;7.25;2.30;;;;;;;;;;5017286;28;20054;-71
2023/09/18 12:26:51;;;;;;;7.10;2.00;;;;;;;;;;5020816;28;20095;-72
2023/09/18 12:29:17;;;;;;;4.57;1.98;;;;;;;;;;5020803;28;20350;-73
2023/09/18 12:31:45;;;;;;;4.80;2.00;;;;;;;;;;5023144;28;20092;-71
2023/09/18 12:34:23;;;;;;;4.50;2.10;;;;;;;;;;5015495;28;20703;-71
2023/09/18 12:36:49;;;;;;;4.40;1.80;;;;;;;;;;5019059;28;20540;-70
2023/09/18 12:39:18;;;;;;;4.78;2.25;;;;;;;;;;5020197;28;20465;-72
2023/09/18 12:41:44;;;;;;;6.47;2.22;;;;;;;;;;5018700;28;20034;-71
2023/09/18 12:44:10;;;;;;;7.97;1.95;;;;;;;;;;5024372;28;20024;-75
2023/09/18 12:46:36;;;;;;;4.45;2.33;;;;;;;;;;5032252;28;20067;-73
2023/09/18 12:49:14;;;;;;;7.57;1.85;;;;;;;;;;5033203;28;20115;-71
2023/09/18 12:51:39;;;;;;;7.05;2.03;;;;;;;;;;5029008;28;20025;-73
2023/09/18 12:54:06;;;;;;;3.50;1.70;;;;;;;;;;5025486;28;20374;-72
2023/09/18 12:56:31;;;;;;;4.43;1.83;;;;;;;;;;5026227;28;20112;-72
2023/09/18 12:58:57;;;;;;;4.10;1.70;;;;;;;;;;5031528;28;20442;-72
2023/09/18 13:01:23;;;;;;;3.70;1.50;;;;;;;;;;5030365;28;20079;-72
2023/09/18 13:03:48;;;;;;;4.45;1.52;;;;;;;;;;5031833;28;20065;-73
2023/09/18 13:06:17;;;;;;;5.55;1.85;;;;;;;;;;5026117;28;20021;-72
2023/09/18 13:08:43;;;;;;;3.85;1.45;;;;;;;;;;5031122;28;20512;-70
2023/09/18 13:11:10;;;;;;;3.05;1.45;;;;;;;;;;5030554;28;20013;-72
2023/09/18 13:13:36;;;;;;;5.47;1.70;;;;;;;;;;5029196;28;20131;-72
2023/09/18 13:16:04;;;;;;;5.53;1.60;;;;;;;;;;5027578;28;20034;-71
2023/09/18 13:18:29;;;;;;;6.07;1.77;;;;;;;;;;5019472;28;20386;-72
2023/09/18 13:20:56;;;;;;;4.43;1.40;;;;;;;;;;5022722;28;20017;-72
2023/09/18 13:23:27;;;;;;;6.03;1.70;;;;;;;;;;5025704;28;20026;-71
2023/09/18 13:25:58;;;;;;;8.48;1.50;;;;;;;;;;5023513;28;20470;-68
2023/09/18 13:28:23;;;;;;;4.03;1.35;;;;;;;;;;5030063;28;20082;-67
2023/09/18 13:30:50;;;;;;;3.65;1.40;;;;;;;;;;5030341;28;20464;-67
2023/09/18 13:33:16;;;;;;;5.65;1.80;;;;;;;;;;5023732;28;20021;-67
2023/09/18 13:35:42;;;;;;;8.43;1.80;;;;;;;;;;5028098;28;20028;-69
2023/09/18 13:38:08;;;;;;;4.90;1.40;;;;;;;;;;5024617;28;20017;-69
2023/09/18 13:40:37;;;;;;;3.83;1.40;;;;;;;;;;5033628;28;20382;-69
2023/09/18 13:43:06;;;;;;;4.82;1.50;;;;;;;;;;5033585;28;20068;-67
2023/09/18 13:45:32;;;;;;;3.33;1.40;;;;;;;;;;5033652;28;20105;-68
2023/09/18 13:47:57;;;;;;;5.85;1.50;;;;;;;;;;5031280;28;20021;-66
2023/09/18 13:50:22;;;;;;;6.15;1.98;;;;;;;;;;5029863;28;20041;-66
2023/09/18 13:52:48;;;;;;;3.05;1.38;;;;;;;;;;5033583;28;20045;-67
2023/09/18 13:55:13;;;;;;;2.40;1.38;;;;;;;;;;5023822;28;20490;-68
2023/09/18 13:57:40;;;;;;;4.15;1.58;;;;;;;;;;5026216;28;20500;-67
2023/09/18 14:00:09;;;;;;;3.22;1.60;;;;;;;;;;5015838;28;20072;-66
2023/09/18 14:02:34;;;;;;;4.68;1.40;;;;;;;;;;5025622;28;20045;-68
2023/09/18 14:05:00;;;;;;;5.43;1.40;;;;;;;;;;5027803;28;20029;-66
2023/09/18 14:07:25;;;;;;;4.78;1.35;;;;;;;;;;5024823;28;20022;-67
2023/09/18 14:09:50;;;;;;;7.10;1.55;;;;;;;;;;5013877;28;20500;-67
2023/09/18 14:12:16;;;;;;;5.07;1.60;;;;;;;;;;5014216;28;20101;-67
2023/09/18 14:14:41;;;;;;;6.25;1.70;;;;;;;;;;5014083;28;20068;-67
2023/09/18 14:17:08;;;;;;;5.97;1.85;;;;;;;;;;5014142;28;20018;-66
2023/09/18 14:19:34;;;;;;;3.88;1.50;;;;;;;;;;5014349;28;20092;-67
2023/09/18 14:22:03;;;;;;;4.05;1.60;;;;;;;;;;5014132;28;20095;-67
2023/09/18 14:24:29;;;;;;;3.95;1.60;;;;;;;;;;5016886;28;20492;-67
2023/09/18 14:26:55;;;;;;;4.00;1.63;;;;;;;;;;5033485;28;20018;-66
2023/09/18 14:29:20;;;;;;;5.65;1.42;;;;;;;;;;5029612;28;20109;-66
2023/09/18 14:31:46;;;;;;;5.45;1.83;;;;;;;;;;5032153;28;20061;-67
2023/09/18 14:34:11;;;;;;;3.33;1.67;;;;;;;;;;5025657;28;20014;-67
2023/09/18 14:36:38;;;;;;;4.30;1.60;;;;;;;;;;5027014;28;20022;-67